Time;durP1;ratioP1;P1;durP2;ratioP2;P2;SDS_P1;SDS_P2;PMS_P1;PMS_P2;Temp;Humidity;BMP_temperature;BMP_pressure;BME280_temperature;BME280_humidity;BME280_pressure;Samples;Min_cycle;Max_cycle;Signal;HPM_P1;HPM_P2
2022/03/02 00:00:57;;;;;;;13.17;9.07;;;1.30;99.90;;;;;;5090744;28;20462;-69
2022/03/02 00:03:24;;;;;;;11.83;8.33;;;1.20;99.90;;;;;;5091259;28;20447;-68
2022/03/02 00:05:50;;;;;;;12.03;8.13;;;1.10;99.90;;;;;;5094121;28;20444;-69
2022/03/02 00:08:17;;;;;;;11.07;7.60;;;1.00;99.90;;;;;;5092963;28;20507;-69
2022/03/02 00:10:44;;;;;;;12.60;8.00;;;1.00;99.90;;;;;;5092423;28;20476;-69
2022/03/02 00:13:11;;;;;;;16.97;8.87;;;0.90;99.90;;;;;;5082550;28;20457;-69
2022/03/02 00:15:38;;;;;;;13.20;8.43;;;0.90;99.90;;;;;;5091681;28;20488;-69
2022/03/02 00:18:07;;;;;;;11.47;8.33;;;1.10;99.90;;;;;;5092700;28;20451;-69
2022/03/02 00:20:34;;;;;;;13.43;8.07;;;1.40;99.90;;;;;;5092749;28;20528;-69
2022/03/02 00:23:01;;;;;;;12.90;8.77;;;1.70;99.90;;;;;;5089806;28;20533;-69
2022/03/02 00:25:28;;;;;;;14.10;8.30;;;1.70;99.90;;;;;;5090183;28;20526;-69
2022/03/02 00:27:55;;;;;;;12.43;7.90;;;1.70;99.90;;;;;;5089786;28;20443;-69
2022/03/02 00:30:26;;;;;;;12.33;8.40;;;1.40;99.90;;;;;;5084926;28;20447;-69
2022/03/02 00:32:53;;;;;;;11.90;8.57;;;1.20;99.90;;;;;;5086757;28;20462;-69
2022/03/02 00:35:22;;;;;;;14.80;8.80;;;1.20;99.90;;;;;;5089196;28;20492;-69
2022/03/02 00:37:49;;;;;;;10.30;8.10;;;1.30;99.90;;;;;;5087143;28;20452;-69
2022/03/02 00:40:15;;;;;;;13.80;9.10;;;1.50;99.90;;;;;;5091309;28;20948;-67
2022/03/02 00:42:43;;;;;;;8.97;8.03;;;1.50;99.90;;;;;;5082739;28;21014;-68
2022/03/02 00:45:10;;;;;;;12.53;9.00;;;1.50;99.90;;;;;;5090063;28;20459;-68
2022/03/02 00:47:39;;;;;;;10.00;7.70;;;1.40;99.90;;;;;;5093254;28;20481;-68
2022/03/02 00:50:07;;;;;;;13.17;8.30;;;1.30;99.90;;;;;;5093822;28;20448;-68
2022/03/02 00:52:36;;;;;;;11.70;8.80;;;1.40;99.90;;;;;;5092676;28;20496;-68
2022/03/02 00:55:04;;;;;;;20.20;9.60;;;1.50;99.90;;;;;;5093817;28;20487;-68
2022/03/02 00:57:31;;;;;;;9.23;7.23;;;1.30;99.90;;;;;;5093171;28;20513;-68
2022/03/02 00:59:58;;;;;;;15.47;8.93;;;1.30;99.90;;;;;;5091871;28;20950;-68
2022/03/02 01:02:25;;;;;;;12.13;10.40;;;1.50;99.90;;;;;;5083483;28;20533;-68
2022/03/02 01:04:52;;;;;;;13.03;9.50;;;1.60;99.90;;;;;;5093397;28;20483;-67
2022/03/02 01:07:19;;;;;;;13.40;9.10;;;1.60;99.90;;;;;;5092672;28;20538;-68
2022/03/02 01:09:47;;;;;;;12.47;10.10;;;1.50;99.90;;;;;;5092304;28;20525;-68
2022/03/02 01:12:14;;;;;;;12.50;8.87;;;1.50;99.90;;;;;;5091083;28;20531;-69
2022/03/02 01:14:42;;;;;;;11.10;9.27;;;1.40;99.90;;;;;;5091278;28;20490;-69
2022/03/02 01:17:09;;;;;;;14.80;8.80;;;1.40;99.90;;;;;;5092831;28;20521;-69
2022/03/02 01:19:38;;;;;;;11.83;8.73;;;1.20;99.90;;;;;;5091185;28;20451;-69
2022/03/02 01:22:05;;;;;;;14.00;8.40;;;1.20;99.90;;;;;;5092992;28;20455;-69
2022/03/02 01:24:33;;;;;;;13.60;9.97;;;1.30;99.90;;;;;;5091327;28;20462;-69
2022/03/02 01:27:01;;;;;;;12.93;8.30;;;1.30;99.90;;;;;;5085940;28;21055;-69
2022/03/02 01:29:30;;;;;;;12.40;8.80;;;1.30;99.90;;;;;;5091716;28;20931;-69
2022/03/02 01:31:57;;;;;;;10.90;8.13;;;1.60;99.90;;;;;;5092427;28;20522;-69
2022/03/02 01:34:23;;;;;;;12.97;8.17;;;1.50;99.90;;;;;;5090679;28;20510;-69
2022/03/02 01:36:50;;;;;;;13.50;8.80;;;1.50;99.90;;;;;;5092544;28;20452;-68
2022/03/02 01:39:17;;;;;;;15.17;8.20;;;1.10;99.90;;;;;;5085870;28;20487;-69
2022/03/02 01:41:44;;;;;;;11.97;8.80;;;1.20;99.90;;;;;;5091860;28;20463;-69
2022/03/02 01:44:13;;;;;;;11.03;8.00;;;1.10;99.90;;;;;;5092012;28;20850;-69
2022/03/02 01:46:40;;;;;;;13.10;8.30;;;1.20;99.90;;;;;;5091634;28;20499;-69
2022/03/02 01:49:07;;;;;;;14.63;10.03;;;1.40;99.90;;;;;;5090380;28;20477;-69
2022/03/02 01:51:35;;;;;;;13.30;9.53;;;1.40;99.90;;;;;;5091530;28;20825;-69
2022/03/02 01:54:02;;;;;;;11.57;8.60;;;1.40;99.90;;;;;;5091148;28;20506;-69
2022/03/02 01:56:29;;;;;;;18.60;8.93;;;1.50;99.90;;;;;;5091222;28;20453;-69
2022/03/02 01:58:56;;;;;;;15.70;11.13;;;1.30;99.90;;;;;;5091747;28;20539;-69
2022/03/02 02:01:24;;;;;;;16.87;9.77;;;1.00;99.90;;;;;;5090747;28;20459;-68
2022/03/02 02:03:52;;;;;;;13.37;8.70;;;1.30;99.90;;;;;;5090053;28;20528;-69
2022/03/02 02:06:19;;;;;;;15.23;8.50;;;1.20;99.90;;;;;;5092002;28;20442;-69
2022/03/02 02:08:47;;;;;;;12.17;8.53;;;1.10;99.90;;;;;;5090833;28;20954;-69
2022/03/02 02:11:14;;;;;;;10.10;7.77;;;1.00;99.90;;;;;;5090908;28;20605;-69
2022/03/02 02:13:41;;;;;;;12.13;9.13;;;1.20;99.90;;;;;;5090103;28;20549;-69
2022/03/02 02:16:09;;;;;;;16.30;8.03;;;1.40;99.90;;;;;;5091690;28;21029;-69
2022/03/02 02:18:40;;;;;;;12.43;8.70;;;1.20;99.90;;;;;;5090121;28;20454;-69
2022/03/02 02:21:09;;;;;;;8.63;7.40;;;;;;;;;;5091307;28;20541;-69
2022/03/02 02:23:37;;;;;;;14.57;8.73;;;;;;;;;;5089828;28;20496;-69
2022/03/02 02:26:05;;;;;;;11.20;7.80;;;;;;;;;;5090405;28;21015;-69
2022/03/02 02:28:32;;;;;;;14.47;9.27;;;;;;;;;;5090392;28;21013;-69
2022/03/02 02:31:00;;;;;;;16.77;8.70;;;;;;;;;;5078157;28;20537;-69
2022/03/02 02:33:28;;;;;;;11.57;8.67;;;;;;;;;;5089375;28;20448;-68
2022/03/02 02:35:55;;;;;;;16.27;8.60;;;;;;;;;;5091569;28;20512;-69
2022/03/02 02:38:23;;;;;;;10.73;8.27;;;;;;;;;;5090964;28;20522;-68
2022/03/02 02:40:51;;;;;;;11.73;8.87;;;;;;;;;;5076898;28;20451;-69
2022/03/02 02:43:19;;;;;;;13.40;8.70;;;;;;;;;;5085372;28;20490;-69
2022/03/02 02:45:46;;;;;;;13.13;9.43;;;;;;;;;;5076684;28;20540;-69
2022/03/02 02:48:13;;;;;;;14.03;9.90;;;;;;;;;;5084486;28;20540;-69
2022/03/02 02:50:41;;;;;;;15.33;9.57;;;;;;;;;;5090595;28;20899;-69
2022/03/02 02:53:09;;;;;;;11.50;9.00;;;;;;;;;;5091002;28;20517;-69
2022/03/02 02:55:38;;;;;;;14.67;9.53;;;;;;;;;;5090705;28;20482;-68
2022/03/02 02:58:06;;;;;;;15.30;9.00;;;;;;;;;;5090852;28;20502;-69
2022/03/02 03:00:34;;;;;;;20.73;9.43;;;;;;;;;;5090742;28;20456;-68
2022/03/02 03:03:01;;;;;;;11.07;7.60;;;;;;;;;;5090643;28;20817;-69
2022/03/02 03:05:30;;;;;;;16.40;8.30;;;;;;;;;;5090754;28;20929;-69
2022/03/02 03:07:57;;;;;;;13.40;9.10;;;;;;;;;;5090699;28;20458;-69
2022/03/02 03:10:25;;;;;;;12.97;8.93;;;;;;;;;;5090343;28;20451;-69
2022/03/02 03:12:54;;;;;;;14.43;9.00;;;;;;;;;;5090700;28;20449;-69
2022/03/02 03:15:21;;;;;;;12.77;9.37;;;;;;;;;;5090621;28;20479;-69
2022/03/02 03:17:49;;;;;;;15.10;9.10;;;;;;;;;;5090589;28;20540;-69
2022/03/02 03:20:17;;;;;;;16.17;9.50;;;;;;;;;;5091061;28;20485;-69
2022/03/02 03:22:44;;;;;;;12.87;8.00;;;;;;;;;;5089767;28;21068;-69
2022/03/02 03:25:12;;;;;;;17.33;9.70;;;;;;;;;;5090971;28;20490;-69
2022/03/02 03:27:40;;;;;;;14.63;8.93;;;;;;;;;;5090144;28;20467;-69
2022/03/02 03:30:10;;;;;;;11.50;7.80;;;;;;;;;;5090921;28;20487;-68
2022/03/02 03:32:37;;;;;;;13.43;8.13;;;;;;;;;;5085368;28;20472;-69
2022/03/02 03:35:05;;;;;;;12.17;7.87;;;;;;;;;;5086913;28;20849;-69
2022/03/02 03:37:32;;;;;;;12.00;7.40;;;;;;;;;;5094752;28;20453;-68
2022/03/02 03:39:59;;;;;;;11.37;8.00;;;;;;;;;;5095313;28;20452;-69
2022/03/02 03:42:27;;;;;;;18.17;8.80;;;;;;;;;;5092436;28;20554;-69
2022/03/02 03:44:54;;;;;;;15.10;9.20;;;;;;;;;;5095219;28;20531;-69
2022/03/02 03:47:23;;;;;;;10.57;7.90;;;;;;;;;;5081335;28;20471;-69
2022/03/02 03:49:50;;;;;;;13.43;7.97;;;;;;;;;;5094737;28;20444;-69
2022/03/02 03:52:17;;;;;;;15.03;8.50;;;;;;;;;;5094612;28;20534;-69
2022/03/02 03:54:44;;;;;;;18.47;8.53;;;;;;;;;;5088947;28;20505;-69
2022/03/02 03:57:11;;;;;;;9.17;6.33;;;;;;;;;;5094889;28;20455;-68
2022/03/02 03:59:39;;;;;;;15.10;8.30;;;;;;;;;;5082746;28;20452;-68
2022/03/02 04:02:06;;;;;;;13.57;8.50;;;;;;;;;;5094339;28;20518;-69
2022/03/02 04:04:35;;;;;;;11.77;8.13;;;;;;;;;;5093462;28;20994;-68
2022/03/02 04:07:02;;;;;;;14.80;9.20;;;;;;;;;;5094531;28;20489;-69
2022/03/02 04:09:29;;;;;;;11.00;8.27;;;;;;;;;;5093252;28;20997;-69
2022/03/02 04:11:57;;;;;;;11.63;8.80;;;;;;;;;;5090242;28;20471;-68
2022/03/02 04:14:24;;;;;;;16.20;9.43;;;;;;;;;;5093573;28;20446;-69
2022/03/02 04:16:51;;;;;;;12.63;8.30;;;;;;;;;;5093564;28;20485;-68
2022/03/02 04:19:19;;;;;;;17.80;8.50;;;;;;;;;;5094088;28;20475;-68
2022/03/02 04:21:48;;;;;;;18.53;8.40;;;;;;;;;;5093628;28;20466;-68
2022/03/02 04:24:15;;;;;;;14.03;8.53;;;;;;;;;;5093582;28;20486;-68
2022/03/02 04:26:42;;;;;;;11.27;7.93;;;;;;;;;;5093053;28;21152;-68
2022/03/02 04:29:10;;;;;;;12.33;8.70;;;;;;;;;;5093879;28;20514;-69
2022/03/02 04:31:37;;;;;;;13.03;8.57;;;;;;;;;;5093193;28;20446;-68
2022/03/02 04:34:04;;;;;;;14.80;8.40;;;;;;;;;;5093185;28;20876;-68
2022/03/02 04:36:31;;;;;;;12.90;9.03;;;;;;;;;;5092914;28;20554;-68
2022/03/02 04:39:00;;;;;;;14.47;8.20;;;;;;;;;;5093585;28;20531;-68
2022/03/02 04:41:27;;;;;;;10.47;7.77;;;;;;;;;;5093331;28;20451;-68
2022/03/02 04:43:55;;;;;;;11.30;8.93;;;;;;;;;;5093317;28;20466;-68
2022/03/02 04:46:22;;;;;;;14.07;9.53;;;;;;;;;;5093551;28;20451;-68
2022/03/02 04:48:49;;;;;;;11.70;8.27;;;;;;;;;;5081233;28;20471;-68
2022/03/02 04:51:17;;;;;;;15.10;8.80;;;;;;;;;;5093522;28;20465;-68
2022/03/02 04:53:44;;;;;;;13.93;9.53;;;;;;;;;;5092158;28;20508;-68
2022/03/02 04:56:12;;;;;;;12.63;7.73;;;;;;;;;;5093524;28;20992;-69
2022/03/02 04:58:40;;;;;;;14.40;8.97;;;;;;;;;;5092938;28;20546;-68
2022/03/02 05:01:07;;;;;;;12.20;8.60;;;;;;;;;;5093643;28;20476;-68
2022/03/02 05:03:34;;;;;;;12.50;9.23;;;;;;;;;;5092396;28;20446;-68
2022/03/02 05:06:01;;;;;;;13.23;7.90;;;;;;;;;;5093320;28;20471;-68
2022/03/02 05:08:28;;;;;;;14.60;8.87;;;;;;;;;;5092522;28;20442;-68
2022/03/02 05:10:55;;;;;;;15.37;9.10;;;;;;;;;;5093034;28;20776;-69
2022/03/02 05:13:24;;;;;;;11.57;7.60;;;;;;;;;;5092105;28;20440;-68
2022/03/02 05:15:51;;;;;;;13.30;8.60;;;;;;;;;;5092958;28;20578;-67
2022/03/02 05:18:18;;;;;;;13.40;8.40;;;;;;;;;;5092655;28;20447;-69
2022/03/02 05:20:45;;;;;;;16.33;9.57;;;;;;;;;;5086211;28;20551;-69
2022/03/02 05:23:13;;;;;;;14.07;8.60;;;;;;;;;;5086382;28;20442;-69
2022/03/02 05:25:40;;;;;;;13.90;8.90;;;;;;;;;;5087383;28;20464;-68
2022/03/02 05:28:07;;;;;;;17.70;9.33;;;;;;;;;;5088865;28;20937;-69
2022/03/02 05:30:36;;;;;;;14.40;8.27;;;;;;;;;;5091891;28;20448;-68
2022/03/02 05:33:03;;;;;;;15.13;9.53;;;;;;;;;;5092227;28;20484;-68
2022/03/02 05:35:30;;;;;;;18.87;10.10;;;;;;;;;;5091839;28;20484;-69
2022/03/02 05:37:57;;;;;;;13.30;7.83;;;;;;;;;;5092753;28;20458;-70
2022/03/02 05:40:24;;;;;;;16.97;8.00;;;;;;;;;;5081414;28;20531;-68
2022/03/02 05:42:52;;;;;;;10.63;7.97;;;;;;;;;;5092145;28;20451;-67
2022/03/02 05:45:19;;;;;;;14.80;8.10;;;;;;;;;;5092192;28;20926;-69
2022/03/02 05:47:47;;;;;;;15.47;9.37;;;;;;;;;;5092521;28;20440;-69
2022/03/02 05:50:15;;;;;;;12.40;8.70;;;;;;;;;;5092055;28;20534;-69
2022/03/02 05:52:42;;;;;;;15.63;9.03;;;;;;;;;;5090816;28;20506;-67
2022/03/02 05:55:09;;;;;;;15.33;8.40;;;;;;;;;;5092122;28;20994;-69
2022/03/02 05:57:37;;;;;;;12.90;7.93;;;;;;;;;;5091441;28;20491;-68
2022/03/02 06:00:05;;;;;;;11.40;7.87;;;;;;;;;;5091639;28;20958;-69
2022/03/02 06:02:32;;;;;;;11.80;8.90;;;;;;;;;;5091029;28;20484;-70
2022/03/02 06:05:01;;;;;;;15.10;9.30;;;;;;;;;;5089222;28;20569;-69
2022/03/02 06:07:28;;;;;;;16.73;9.10;;;;;;;;;;5091268;28;20449;-69
2022/03/02 06:09:56;;;;;;;15.87;10.33;;;;;;;;;;5091899;28;20816;-69
2022/03/02 06:12:23;;;;;;;18.77;9.40;;;;;;;;;;5091769;28;20538;-69
2022/03/02 06:14:51;;;;;;;12.80;8.70;;;;;;;;;;5078110;28;20484;-69
2022/03/02 06:17:18;;;;;;;13.70;8.70;;;;;;;;;;5091930;28;20979;-69
2022/03/02 06:19:46;;;;;;;13.10;8.20;;;;;;;;;;5090731;28;20496;-69
2022/03/02 06:22:16;;;;;;;15.37;10.00;;;;;;;;;;5091412;28;20487;-69
2022/03/02 06:24:44;;;;;;;18.00;9.03;;;;;;;;;;5090461;28;20480;-69
2022/03/02 06:27:11;;;;;;;13.30;9.47;;;;;;;;;;5091635;28;20915;-69
2022/03/02 06:29:39;;;;;;;12.13;9.00;;;;;;;;;;5090636;28;20455;-69
2022/03/02 06:32:07;;;;;;;12.50;8.80;;;;;;;;;;5091173;28;20952;-69
2022/03/02 06:34:34;;;;;;;16.50;8.97;;;;;;;;;;5089954;28;20524;-70
2022/03/02 06:37:01;;;;;;;13.70;8.50;;;;;;;;;;5091478;28;21047;-69
2022/03/02 06:39:29;;;;;;;12.97;7.57;;;;;;;;;;5091186;28;20547;-69
2022/03/02 06:42:04;;;;;;;15.17;10.00;;;;;;;;;;5091650;28;20448;-69
2022/03/02 06:44:33;;;;;;;19.03;10.10;;;;;;;;;;5090494;28;20447;-69
2022/03/02 06:47:02;;;;;;;15.60;9.20;;;;;;;;;;5091618;28;20484;-69
2022/03/02 06:49:31;;;;;;;17.43;9.87;;;;;;;;;;5090426;28;20442;-69
2022/03/02 06:51:59;;;;;;;13.57;9.60;;;;;;;;;;5091658;28;20546;-69
2022/03/02 06:54:29;;;;;;;19.43;9.93;;;;;;;;;;5090438;28;20561;-69
2022/03/02 06:56:59;;;;;;;11.10;9.30;;;1.20;99.90;;;;;;5091324;28;20882;-69
2022/03/02 06:59:31;;;;;;;15.77;9.60;;;1.80;99.90;;;;;;5090768;28;20485;-69
2022/03/02 07:02:03;;;;;;;15.57;9.00;;;1.90;99.90;;;;;;5091283;28;20478;-69
2022/03/02 07:04:35;;;;;;;16.10;9.60;;;2.00;99.90;;;;;;5090020;28;20493;-69
2022/03/02 07:07:03;;;;;;;15.23;10.63;;;1.90;99.90;;;;;;5091210;28;20448;-69
2022/03/02 07:09:31;;;;;;;15.63;10.87;;;2.30;99.90;;;;;;5090193;28;20803;-69
2022/03/02 07:12:01;;;;;;;17.43;9.40;;;2.20;99.90;;;;;;5090232;28;20531;-68
2022/03/02 07:14:30;;;;;;;13.93;8.53;;;2.00;99.90;;;;;;5089865;28;20451;-69
2022/03/02 07:16:58;;;;;;;18.63;9.60;;;1.70;99.90;;;;;;5090644;28;20479;-69
2022/03/02 07:19:26;;;;;;;21.07;11.30;;;1.70;99.90;;;;;;5089796;28;20955;-69
2022/03/02 07:21:53;;;;;;;14.87;10.27;;;1.90;99.90;;;;;;5090985;28;20854;-69
2022/03/02 07:24:23;;;;;;;15.83;9.70;;;2.20;99.90;;;;;;5090262;28;20535;-69
2022/03/02 07:26:52;;;;;;;15.50;9.20;;;2.40;99.90;;;;;;5091197;28;20892;-69
2022/03/02 07:29:23;;;;;;;16.03;10.30;;;2.40;99.90;;;;;;5091134;28;20452;-70
2022/03/02 07:31:51;;;;;;;16.17;9.17;;;2.50;99.90;;;;;;5091306;28;20527;-68
2022/03/02 07:34:19;;;;;;;20.33;10.67;;;2.40;99.90;;;;;;5090090;28;20939;-69
2022/03/02 07:36:47;;;;;;;16.47;9.20;;;2.50;99.90;;;;;;5090481;28;20532;-68
2022/03/02 07:39:14;;;;;;;13.00;9.40;;;2.40;99.90;;;;;;5090850;28;20456;-69
2022/03/02 07:41:41;;;;;;;14.93;10.63;;;2.50;99.90;;;;;;5089723;28;20448;-69
2022/03/02 07:44:08;;;;;;;13.73;10.17;;;2.50;99.90;;;;;;5090143;28;20484;-69
2022/03/02 07:46:37;;;;;;;12.57;9.20;;;2.50;99.90;;;;;;5090500;28;20480;-69
2022/03/02 07:49:05;;;;;;;15.13;11.03;;;2.50;99.90;;;;;;5091085;28;20872;-69
2022/03/02 07:51:35;;;;;;;18.23;9.63;;;2.50;99.90;;;;;;5090571;28;20447;-69
2022/03/02 07:54:06;;;;;;;19.57;10.97;;;2.70;99.90;;;;;;5090717;28;20829;-69
2022/03/02 07:56:33;;;;;;;18.60;11.70;;;2.70;99.90;;;;;;5090511;28;20472;-69
2022/03/02 07:59:04;;;;;;;16.00;10.67;;;2.60;99.90;;;;;;5091020;28;20543;-69
2022/03/02 08:01:35;;;;;;;14.67;11.00;;;2.60;99.90;;;;;;5089942;28;21047;-69
2022/03/02 08:04:06;;;;;;;17.87;12.17;;;2.80;99.90;;;;;;5090350;28;20437;-69
2022/03/02 08:06:36;;;;;;;18.20;11.80;;;3.00;99.90;;;;;;5089793;28;20930;-69
2022/03/02 08:09:04;;;;;;;17.00;12.03;;;3.00;99.90;;;;;;5090411;28;20933;-69
2022/03/02 08:11:33;;;;;;;16.07;10.87;;;3.10;99.90;;;;;;5089748;28;20455;-69
2022/03/02 08:14:01;;;;;;;17.03;10.73;;;3.30;99.90;;;;;;5090259;28;20452;-69
2022/03/02 08:16:29;;;;;;;23.00;10.67;;;3.40;99.90;;;;;;5089384;28;20480;-69
2022/03/02 08:18:58;;;;;;;15.93;10.60;;;3.60;99.90;;;;;;5090308;28;20449;-69
2022/03/02 08:21:29;;;;;;;15.77;11.20;;;3.80;99.90;;;;;;5077115;28;20463;-69
2022/03/02 08:23:59;;;;;;;19.87;10.97;;;3.70;99.90;;;;;;5093818;28;20798;-69
2022/03/02 08:26:27;;;;;;;19.80;11.50;;;3.70;99.90;;;;;;5093062;28;20544;-69
2022/03/02 08:28:56;;;;;;;17.77;11.27;;;3.50;99.90;;;;;;5094054;28;20452;-69
2022/03/02 08:31:24;;;;;;;17.40;11.07;;;3.60;99.90;;;;;;5093687;28;20497;-69
2022/03/02 08:33:52;;;;;;;20.83;10.50;;;3.60;99.90;;;;;;5093020;28;20543;-69
2022/03/02 08:36:22;;;;;;;19.13;10.90;;;4.00;99.90;;;;;;5093936;28;20483;-69
2022/03/02 08:38:51;;;;;;;19.93;11.20;;;3.90;99.90;;;;;;5093971;28;20454;-70
2022/03/02 08:41:19;;;;;;;19.83;13.03;;;3.90;99.90;;;;;;5094299;28;20455;-70
2022/03/02 08:43:47;;;;;;;16.47;10.93;;;3.90;99.90;;;;;;5093898;28;20783;-69
2022/03/02 08:46:15;;;;;;;21.83;11.57;;;4.20;99.90;;;;;;5093679;28;20530;-70
2022/03/02 08:48:42;;;;;;;18.60;10.77;;;4.10;99.90;;;;;;5093079;28;20449;-70
2022/03/02 08:51:10;;;;;;;17.00;11.00;;;4.20;99.90;;;;;;5093539;28;20462;-69
2022/03/02 08:53:39;;;;;;;19.33;10.97;;;;;;;;;;5092817;28;20481;-70
2022/03/02 08:56:08;;;;;;;15.43;10.37;;;;;;;;;;5093422;28;20446;-69
2022/03/02 08:58:36;;;;;;;19.53;11.80;;;;;;;;;;5093161;28;20492;-69
2022/03/02 09:01:03;;;;;;;14.20;10.07;;;;;;;;;;5093718;28;20444;-69
2022/03/02 09:03:33;;;;;;;23.80;10.50;;;;;;;;;;5092764;28;20453;-68
2022/03/02 09:06:02;;;;;;;21.57;10.90;;;;;;;;;;5092642;28;20443;-69
2022/03/02 09:08:29;;;;;;;15.37;12.10;;;;;;;;;;5092556;28;20491;-69
2022/03/02 09:10:57;;;;;;;16.37;12.07;;;;;;;;;;5092817;28;20505;-69
2022/03/02 09:13:26;;;;;;;18.70;11.00;;;;;;;;;;5092772;28;20472;-69
2022/03/02 09:15:53;;;;;;;18.07;11.90;;;;;;;;;;5092329;28;21012;-69
2022/03/02 09:18:20;;;;;;;19.93;13.03;;;;;;;;;;5093166;28;20571;-70
2022/03/02 09:20:50;;;;;;;15.93;11.90;;;;;;;;;;5092441;28;20502;-70
2022/03/02 09:23:18;;;;;;;17.00;11.93;;;;;;;;;;5093197;28;20512;-69
2022/03/02 09:25:46;;;;;;;18.67;10.70;;;;;;;;;;5091631;28;20603;-70
2022/03/02 09:28:14;;;;;;;15.73;11.60;;;;;;;;;;5092880;28;20812;-70
2022/03/02 09:30:44;;;;;;;16.90;10.93;;;;;;;;;;5091749;28;20722;-70
2022/03/02 09:33:15;;;;;;;19.73;11.97;;;;;;;;;;5092169;28;20453;-70
2022/03/02 09:35:42;;;;;;;18.30;11.80;;;;;;;;;;5091515;28;20527;-70
2022/03/02 09:38:09;;;;;;;17.50;10.97;;;;;;;;;;5092931;28;20916;-69
2022/03/02 09:40:36;;;;;;;16.03;10.17;;;;;;;;;;5092238;28;20505;-69
2022/03/02 09:43:05;;;;;;;18.00;11.70;;;;;;;;;;5092539;28;20450;-69
2022/03/02 09:45:33;;;;;;;20.00;10.63;;;;;;;;;;5091214;28;20873;-69
2022/03/02 09:48:03;;;;;;;18.80;12.43;;;;;;;;;;5092698;28;20541;-69
2022/03/02 09:50:31;;;;;;;24.67;10.30;;;;;;;;;;5091250;28;20940;-69
2022/03/02 09:53:01;;;;;;;20.70;12.30;;;;;;;;;;5092409;28;20472;-69
2022/03/02 09:55:28;;;;;;;13.53;10.63;;;;;;;;;;5091738;28;20878;-69
2022/03/02 09:57:56;;;;;;;17.77;11.53;;;;;;;;;;5092677;28;20480;-69
2022/03/02 10:00:25;;;;;;;14.70;10.73;;;;;;;;;;5091889;28;20532;-69
2022/03/02 10:02:53;;;;;;;17.30;11.60;;;;;;;;;;5092546;28;20502;-70
2022/03/02 10:05:22;;;;;;;19.17;11.87;;;;;;;;;;5091948;28;20436;-70
2022/03/02 10:07:55;;;;;;;14.27;10.60;;;;;;;;;;5091636;28;20487;-69
2022/03/02 10:10:23;;;;;;;15.67;9.17;;;;;;;;;;5091999;28;20450;-70
2022/03/02 10:12:50;;;;;;;12.70;10.20;;;;;;;;;;5092183;28;20444;-69
2022/03/02 10:15:18;;;;;;;18.00;11.50;;;;;;;;;;5091789;28;20463;-69
2022/03/02 10:17:47;;;;;;;17.43;11.47;;;;;;;;;;5091270;28;20492;-69
2022/03/02 10:20:17;;;;;;;18.80;10.67;;;;;;;;;;5091640;28;20444;-69
2022/03/02 10:23:18;;;;;;;15.53;9.97;;;;;;;;;;5091076;28;20535;-69
2022/03/02 10:25:58;;;;;;;16.27;10.60;;;;;;;;;;5090791;28;20451;-69
2022/03/02 10:28:28;;;;;;;16.60;10.53;;;;;;;;;;5090801;28;20553;-70
2022/03/02 10:31:03;;;;;;;12.67;10.00;;;;;;;;;;5091785;28;20497;-69
2022/03/02 10:33:33;;;;;;;16.17;10.87;;;;;;;;;;5090609;28;20447;-69
2022/03/02 10:36:04;;;;;;;14.10;10.20;;;;;;;;;;5077679;28;20490;-69
2022/03/02 10:38:37;;;;;;;13.20;10.10;;;;;;;;;;5091363;28;20560;-69
2022/03/02 10:41:05;;;;;;;17.03;10.30;;;;;;;;;;5091723;28;20912;-69
2022/03/02 10:43:36;;;;;;;12.60;8.73;;;;;;;;;;5091339;28;20448;-70
2022/03/02 10:46:04;;;;;;;11.67;7.63;;;;;;;;;;5091113;28;20448;-69
2022/03/02 10:48:38;;;;;;;15.63;8.70;;;;;;;;;;5091054;28;20487;-70
2022/03/02 10:51:06;;;;;;;12.57;8.57;;;;;;;;;;5091555;28;20456;-69
2022/03/02 10:53:37;;;;;;;14.47;9.60;;;;;;;;;;5090535;28;21012;-68
2022/03/02 10:56:05;;;;;;;10.57;8.30;;;;;;;;;;5091760;28;20522;-70
2022/03/02 10:58:33;;;;;;;11.37;7.60;;;;;;;;;;5090703;28;20506;-70
2022/03/02 11:01:01;;;;;;;11.83;8.93;;;;;;;;;;5091611;28;20445;-69
2022/03/02 11:03:28;;;;;;;13.50;8.43;;;;;;;;;;5090947;28;20852;-71
2022/03/02 11:05:57;;;;;;;14.80;8.80;;;;;;;;;;5090755;28;20444;-70
2022/03/02 11:08:25;;;;;;;14.73;12.00;;;;;;;;;;5090391;28;20539;-70
2022/03/02 11:10:54;;;;;;;14.37;10.73;;;;;;;;;;5091055;28;20455;-69
2022/03/02 11:13:23;;;;;;;19.83;12.33;;;;;;;;;;5091153;28;20975;-69
2022/03/02 11:15:51;;;;;;;20.97;12.10;;;;;;;;;;5090396;28;20460;-69
2022/03/02 11:18:19;;;;;;;16.87;12.43;;;;;;;;;;5091186;28;20488;-69
2022/03/02 11:20:53;;;;;;;20.83;11.70;;;;;;;;;;5090081;28;20550;-70
2022/03/02 11:23:23;;;;;;;16.97;11.00;;;;;;;;;;5091157;28;20815;-70
2022/03/02 11:25:51;;;;;;;20.03;12.70;;;;;;;;;;5090302;28;20958;-69
2022/03/02 11:28:20;;;;;;;17.70;12.57;;;;;;;;;;5091115;28;20543;-70
2022/03/02 11:30:48;;;;;;;17.27;10.93;;;;;;;;;;5090243;28;20532;-69
2022/03/02 11:33:16;;;;;;;14.63;11.57;;;;;;;;;;5090895;28;20448;-70
2022/03/02 11:35:44;;;;;;;13.93;10.40;;;;;;;;;;5089388;28;20962;-69
2022/03/02 11:38:12;;;;;;;24.53;12.47;;;;;;;;;;5090805;28;20520;-69
2022/03/02 11:40:41;;;;;;;14.30;10.60;;;;;;;;;;5090455;28;20806;-69
2022/03/02 11:43:15;;;;;;;25.63;11.97;;;;;;;;;;5091079;28;20531;-69
2022/03/02 11:45:44;;;;;;;18.57;11.57;;;;;;;;;;5090065;28;20598;-69
2022/03/02 11:48:11;;;;;;;20.23;12.70;;;;;;;;;;5091078;28;20460;-69
2022/03/02 11:50:38;;;;;;;17.77;12.30;;;;;;;;;;5076445;28;20950;-69
2022/03/02 11:53:09;;;;;;;18.10;12.30;;;;;;;;;;5090731;28;20903;-70
2022/03/02 11:55:37;;;;;;;18.70;12.53;;;;;;;;;;5089587;28;20502;-69
2022/03/02 11:58:06;;;;;;;16.47;12.30;;;;;;;;;;5093821;28;20483;-69
2022/03/02 12:00:33;;;;;;;17.23;11.80;;;;;;;;;;5094392;28;20527;-70
2022/03/02 12:03:02;;;;;;;15.17;11.20;;;;;;;;;;5094491;28;20448;-69
2022/03/02 12:05:31;;;;;;;18.27;11.50;;;;;;;;;;5093145;28;20440;-70
2022/03/02 12:08:03;;;;;;;18.10;12.50;;;;;;;;;;5094341;28;20505;-69
2022/03/02 12:10:31;;;;;;;19.77;13.70;;;;;;;;;;5094075;28;20455;-69
2022/03/02 12:12:59;;;;;;;20.07;11.73;;;;;;;;;;5094087;28;20448;-69
2022/03/02 12:15:27;;;;;;;18.13;11.60;;;;;;;;;;5093158;28;20539;-69
2022/03/02 12:18:07;;;;;;;16.77;11.50;;;;;;;;;;5093911;28;20571;-69
2022/03/02 12:20:44;;;;;;;15.10;10.83;;;;;;;;;;5092909;28;20999;-69
2022/03/02 12:23:11;;;;;;;16.13;10.90;;;;;;;;;;5093883;28;20448;-70
2022/03/02 12:25:43;;;;;;;15.27;11.33;;;;;;;;;;5093050;28;20568;-70
2022/03/02 12:28:13;;;;;;;16.60;11.23;;;;;;;;;;5094185;28;20448;-69
2022/03/02 12:30:41;;;;;;;14.80;10.00;;;;;;;;;;5093288;28;20563;-69
2022/03/02 12:33:08;;;;;;;15.80;10.70;;;;;;;;;;5093653;28;20532;-70
2022/03/02 12:35:37;;;;;;;18.17;10.40;;;;;;;;;;5092312;28;20448;-70
2022/03/02 12:38:07;;;;;;;10.30;9.27;;;;;;;;;;5093621;28;20480;-70
2022/03/02 12:40:39;;;;;;;13.00;9.83;;;;;;;;;;5092958;28;20936;-69
2022/03/02 12:43:07;;;;;;;18.10;11.60;;;;;;;;;;5094458;28;20441;-70
2022/03/02 12:45:37;;;;;;;16.10;10.70;;;;;;;;;;5092932;28;20483;-70
2022/03/02 12:48:04;;;;;;;17.70;11.30;;;;;;;;;;5093781;28;20933;-70
2022/03/02 12:50:33;;;;;;;14.30;11.27;;;;;;;;;;5079708;28;20449;-70
2022/03/02 12:53:01;;;;;;;15.00;10.00;;;;;;;;;;5093711;28;20485;-69
2022/03/02 12:55:29;;;;;;;23.07;11.13;;;;;;;;;;5092939;28;20460;-69
2022/03/02 12:57:57;;;;;;;14.47;11.47;;;;;;;;;;5093750;28;20480;-69
2022/03/02 13:00:25;;;;;;;15.53;10.27;;;;;;;;;;5092877;28;20944;-70
2022/03/02 13:02:53;;;;;;;13.20;9.70;;;;;;;;;;5093672;28;20528;-69
2022/03/02 13:05:26;;;;;;;14.53;10.83;;;;;;;;;;5093163;28;20455;-70
2022/03/02 13:08:13;;;;;;;17.57;11.83;;;;;;;;;;5092958;28;20447;-70
2022/03/02 13:10:44;;;;;;;15.63;11.20;;;;;;;;;;5092584;28;20579;-69
2022/03/02 13:13:11;;;;;;;16.47;10.77;;;;;;;;;;5093384;28;20456;-69
2022/03/02 13:15:40;;;;;;;13.90;9.80;;;;;;;;;;5092206;28;20441;-70
2022/03/02 13:18:15;;;;;;;15.60;10.30;;;;;;;;;;5079291;28;20488;-69
2022/03/02 13:20:43;;;;;;;12.67;10.10;;;;;;;;;;5091617;28;20538;-70
2022/03/02 13:23:16;;;;;;;16.40;9.47;;;;;;;;;;5092935;28;20507;-69
2022/03/02 13:26:05;;;;;;;12.60;9.90;;;;;;;;;;5091630;28;20436;-69
2022/03/02 13:28:33;;;;;;;13.70;10.00;;;;;;;;;;5091906;28;20539;-69
2022/03/02 13:31:08;;;;;;;11.97;8.97;;;;;;;;;;5092409;28;20535;-69
2022/03/02 13:34:02;;;;;;;12.37;9.23;;;;;;;;;;5091630;28;20852;-69
2022/03/02 13:36:33;;;;;;;12.57;9.07;;;;;;;;;;5091650;28;20445;-69
2022/03/02 13:39:08;;;;;;;12.10;9.20;;;;;;;;;;5092757;28;20480;-69
2022/03/02 13:41:40;;;;;;;10.43;8.20;;;;;;;;;;5092162;28;20440;-69
2022/03/02 13:44:20;;;;;;;10.40;8.40;;;;;;;;;;5078876;28;20444;-69
2022/03/02 13:47:10;;;;;;;13.43;8.80;;;;;;;;;;5092179;28;20441;-68
2022/03/02 13:49:53;;;;;;;11.77;9.27;;;;;;;;;;5091501;28;20459;-68
2022/03/02 13:52:21;;;;;;;10.90;8.80;;;;;;;;;;5080228;28;20470;-69
2022/03/02 13:54:50;;;;;;;11.30;8.77;;;;;;;;;;5092271;28;20544;-70
2022/03/02 13:57:18;;;;;;;11.43;8.97;;;;;;;;;;5092415;28;20936;-69
2022/03/02 13:59:46;;;;;;;11.87;8.90;;;;;;;;;;5091621;28;20854;-70